Time;durP1;ratioP1;P1;durP2;ratioP2;P2;SDS_P1;SDS_P2;PMS_P1;PMS_P2;Temp;Humidity;BMP_temperature;BMP_pressure;BME280_temperature;BME280_humidity;BME280_pressure;Samples;Min_cycle;Max_cycle;Signal;HPM_P1;HPM_P2
2022/10/15 00:00:44;;;;;;;29.47;26.93;;;;;;;;;;5114388;28;20421;-78
2022/10/15 00:03:11;;;;;;;30.53;28.43;;;;;;;;;;5113727;28;20470;-79
2022/10/15 00:05:38;;;;;;;29.27;27.23;;;;;;;;;;5114096;28;20484;-78
2022/10/15 00:08:06;;;;;;;29.70;27.60;;;;;;;;;;5113687;28;20430;-79
2022/10/15 00:10:33;;;;;;;29.10;27.20;;;;;;;;;;5113954;28;20445;-78
2022/10/15 00:13:02;;;;;;;28.70;26.70;;;;;;;;;;5112535;27;20489;-77
2022/10/15 00:15:30;;;;;;;28.77;26.87;;;;;;;;;;5113540;28;20924;-79
2022/10/15 00:17:57;;;;;;;28.00;25.93;;;;;;;;;;5113977;28;20484;-78
2022/10/15 00:20:25;;;;;;;30.47;28.07;;;;;;;;;;5113827;28;20448;-79
2022/10/15 00:22:52;;;;;;;28.47;26.57;;;;;;;;;;5112778;28;20469;-79
2022/10/15 00:25:19;;;;;;;29.20;27.10;;;;;;;;;;5113784;28;20515;-79
2022/10/15 00:27:47;;;;;;;28.10;26.17;;;;;;;;;;5113488;28;21018;-80
2022/10/15 00:30:15;;;;;;;30.77;28.60;;;;;;;;;;5113661;28;20806;-78
2022/10/15 00:32:43;;;;;;;28.73;26.80;;;;;;;;;;5112880;28;20971;-78
2022/10/15 00:35:10;;;;;;;28.53;26.40;;;;;;;;;;5113678;28;20845;-78
2022/10/15 00:37:37;;;;;;;28.53;26.63;;;;;;;;;;5113213;28;20587;-79
2022/10/15 00:40:05;;;;;;;26.93;25.17;;;;;;;;;;5113326;28;20454;-79
2022/10/15 00:42:32;;;;;;;28.00;25.80;;;;;;;;;;5112980;28;20472;-77
2022/10/15 00:45:00;;;;;;;27.93;25.93;;;;;;;;;;5113420;28;20449;-78
2022/10/15 00:47:38;;;;;;;29.10;27.00;;;;;;;;;;5113687;28;20444;-78
2022/10/15 00:50:07;;;;;;;25.53;23.83;;;;;;;;;;5113853;28;20432;-79
2022/10/15 00:52:38;;;;;;;27.37;25.37;;;;;;;;;;5117168;28;20447;-78
2022/10/15 00:55:07;;;;;;;27.30;25.30;;;;;;;;;;5117613;28;20912;-79
2022/10/15 00:57:35;;;;;;;27.30;25.03;;;;;;;;;;5117580;28;20480;-79
2022/10/15 01:00:03;;;;;;;27.33;25.43;;;;;;;;;;5116324;28;20451;-79
2022/10/15 01:02:32;;;;;;;26.70;24.90;;;;;;;;;;5116445;27;20451;-80
2022/10/15 01:04:59;;;;;;;27.23;25.23;;;;;;;;;;5117194;28;20421;-79
2022/10/15 01:07:26;;;;;;;26.90;25.00;;;;;;;;;;5117476;28;20423;-78
2022/10/15 01:09:54;;;;;;;27.17;25.30;;;;;;;;;;5117560;28;20457;-79
2022/10/15 01:12:25;;;;;;;27.50;25.60;;;;;;;;;;5116814;28;20442;-79
2022/10/15 01:15:00;;;;;;;28.20;26.00;;;;;;;;;;5117258;28;20440;-78
2022/10/15 01:17:31;;;;;;;29.30;26.80;;;;;;;;;;5117290;28;20479;-79
2022/10/15 01:20:13;;;;;;;27.77;25.97;;;;;;;;;;5117284;28;20439;-79
2022/10/15 01:22:46;;;;;;;27.50;25.60;;;;;;;;;;5114137;28;20444;-79
2022/10/15 01:25:25;;;;;;;28.00;26.00;;;;;;;;;;5116791;28;20408;-78
2022/10/15 01:27:55;;;;;;;29.37;27.13;;;;;;;;;;5116831;28;20432;-78
2022/10/15 01:30:25;;;;;;;29.57;26.77;;;;;;;;;;5117148;28;20431;-79
2022/10/15 01:32:58;;;;;;;27.50;25.53;;;;;;;;;;5116370;28;20467;-79
2022/10/15 01:35:32;;;;;;;28.17;26.30;;;;;;;;;;5117026;28;20766;-77
2022/10/15 01:38:04;;;;;;;29.37;27.17;;;;;;;;;;5116669;28;20476;-79
2022/10/15 01:40:34;;;;;;;27.90;26.00;;;;;;;;;;5117005;28;20439;-79
2022/10/15 01:43:03;;;;;;;29.30;27.30;;;;;;;;;;5116016;28;20465;-79
2022/10/15 01:45:34;;;;;;;25.97;24.03;;;;;;;;;;5116719;28;20447;-78
2022/10/15 01:48:04;;;;;;;28.27;26.17;;;;;;;;;;5116623;28;20512;-78
2022/10/15 01:50:32;;;;;;;29.30;26.90;;;;;;;;;;5116304;28;20440;-78
2022/10/15 01:53:00;;;;;;;26.60;24.50;;;;;;;;;;5115707;28;20450;-78
2022/10/15 01:55:28;;;;;;;29.20;27.10;;;;;;;;;;5116498;28;20479;-79
2022/10/15 01:57:57;;;;;;;28.70;26.50;;;;;;;;;;5116155;28;20482;-79
2022/10/15 02:00:24;;;;;;;29.23;27.03;;;;;;;;;;5116304;28;20445;-79
2022/10/15 02:02:53;;;;;;;27.50;25.60;;;;;;;;;;5114480;28;20469;-79
2022/10/15 02:05:23;;;;;;;29.50;27.30;;;;;;;;;;5116218;28;20471;-78
2022/10/15 02:07:55;;;;;;;29.33;26.60;;;;;;;;;;5116247;28;20443;-79
2022/10/15 02:10:24;;;;;;;29.10;26.90;;;;;;;;;;5116348;28;20437;-79
2022/10/15 02:12:58;;;;;;;28.80;26.47;;;;;;;;;;5115384;28;20448;-79
2022/10/15 02:15:28;;;;;;;29.20;26.97;;;;;;;;;;5116019;28;20423;-79
2022/10/15 02:17:59;;;;;;;30.30;27.70;;;;;;;;;;5116376;28;20507;-79
2022/10/15 02:20:29;;;;;;;28.03;26.13;;;;;;;;;;5115831;28;20444;-79
2022/10/15 02:23:01;;;;;;;28.33;26.23;;;;;;;;;;5115276;28;20513;-78
2022/10/15 02:25:29;;;;;;;30.63;28.13;;;;;;;;;;5116108;28;20429;-79
2022/10/15 02:27:58;;;;;;;30.47;27.93;;;;;;;;;;5115557;28;20441;-79
2022/10/15 02:30:25;;;;;;;29.80;27.77;;;;;;;;;;5115796;28;20810;-79
2022/10/15 02:32:54;;;;;;;30.83;28.23;;;;;;;;;;5115290;28;20442;-80
2022/10/15 02:35:23;;;;;;;30.90;28.40;;;;;;;;;;5115618;28;20431;-79
2022/10/15 02:37:52;;;;;;;30.63;28.03;;;;;;;;;;5115730;28;20815;-78
2022/10/15 02:40:20;;;;;;;30.70;28.40;;;;;;;;;;5115591;28;20448;-78
2022/10/15 02:42:47;;;;;;;31.27;28.70;;;;;;;;;;5114429;27;20483;-79
2022/10/15 02:45:15;;;;;;;30.00;27.77;;;;;;;;;;5115605;28;20434;-78
2022/10/15 02:47:42;;;;;;;36.93;30.33;;;;;;;;;;5115601;28;20455;-78
2022/10/15 02:50:10;;;;;;;33.10;30.50;;;;;;;;;;5115155;28;20441;-79
2022/10/15 02:52:38;;;;;;;32.90;30.17;;;;;;;;;;5115019;28;20468;-79
2022/10/15 02:55:06;;;;;;;33.00;30.30;;;;;;;;;;5115322;28;20448;-79
2022/10/15 02:57:34;;;;;;;33.23;30.33;;;;;;;;;;5115189;28;20479;-78
2022/10/15 03:00:01;;;;;;;35.40;32.40;;;;;;;;;;5114960;28;20455;-78
2022/10/15 03:02:28;;;;;;;36.00;32.73;;;;;;;;;;5114373;28;20972;-78
2022/10/15 03:04:56;;;;;;;36.60;33.20;;;;;;;;;;5114925;28;20445;-79
2022/10/15 03:07:24;;;;;;;36.47;32.97;;;;;;;;;;5115108;28;20480;-79
2022/10/15 03:09:52;;;;;;;35.60;32.30;;;;;;;;;;5115100;28;20472;-77
2022/10/15 03:12:22;;;;;;;35.30;32.20;;;;;;;;;;5114294;28;20419;-79
2022/10/15 03:14:49;;;;;;;31.53;28.73;;;;;;;;;;5114660;28;20415;-78
2022/10/15 03:17:16;;;;;;;34.67;31.43;;;;;;;;;;5114786;28;20462;-79
2022/10/15 03:19:43;;;;;;;35.03;31.97;;;;;;;;;;5114503;28;20448;-79
2022/10/15 03:22:11;;;;;;;36.50;32.80;;;;;;;;;;5114254;28;20461;-78
2022/10/15 03:24:38;;;;;;;46.97;35.80;;;;;;;;;;5114413;28;20932;-79
2022/10/15 03:27:07;;;;;;;69.70;36.70;;;;;;;;;;5114646;28;20776;-78
2022/10/15 03:29:34;;;;;;;85.17;38.30;;;;;;;;;;5114632;28;20452;-78
2022/10/15 03:32:01;;;;;;;60.47;36.23;;;;;;;;;;5114147;28;20448;-79
2022/10/15 03:34:29;;;;;;;59.10;36.93;;;;;;;;;;5114529;28;20457;-78
2022/10/15 03:36:56;;;;;;;60.27;35.03;;;;;;;;;;5113998;28;20464;-77
2022/10/15 03:39:24;;;;;;;50.80;37.27;;;;;;;;;;5114235;28;20457;-78
2022/10/15 03:41:53;;;;;;;67.43;36.23;;;;;;;;;;5113555;28;20448;-79
2022/10/15 03:44:22;;;;;;;66.60;37.23;;;;;;;;;;5113664;28;20542;-78
2022/10/15 03:46:49;;;;;;;55.63;37.50;;;;;;;;;;5114265;28;20449;-78
2022/10/15 03:49:16;;;;;;;50.80;37.50;;;;;;;;;;5114173;28;20457;-79
2022/10/15 03:51:43;;;;;;;46.93;37.93;;;;;;;;;;5113678;28;20452;-78
2022/10/15 03:54:11;;;;;;;52.93;37.13;;;;;;;;;;5113772;28;20479;-78
2022/10/15 03:56:38;;;;;;;62.67;38.10;;;;;;;;;;5113723;28;20445;-78
2022/10/15 03:59:05;;;;;;;48.63;38.13;;;;;;;;;;5113780;28;20488;-77
2022/10/15 04:01:34;;;;;;;57.47;40.97;;;;;;;;;;5113622;28;20802;-78
2022/10/15 04:04:01;;;;;;;47.43;38.27;;;;;;;;;;5113604;28;20475;-79
2022/10/15 04:06:28;;;;;;;49.27;36.17;;;;;;;;;;5113646;28;20931;-78
2022/10/15 04:08:56;;;;;;;50.73;39.30;;;;;;;;;;5113580;28;20454;-79
2022/10/15 04:11:24;;;;;;;53.80;40.60;;;;;;;;;;5113435;28;20805;-79
2022/10/15 04:13:51;;;;;;;50.50;39.83;;;;;;;;;;5113487;28;20457;-77
2022/10/15 04:16:18;;;;;;;52.90;41.03;;;;;;;;;;5113415;28;20457;-78
2022/10/15 04:18:48;;;;;;;58.73;41.70;;;;;;;;;;5113405;28;21005;-79
2022/10/15 04:21:15;;;;;;;52.43;40.20;;;;;;;;;;5112936;28;20461;-79
2022/10/15 04:23:42;;;;;;;57.63;43.63;;;;;;;;;;5113731;28;20462;-79
2022/10/15 04:26:09;;;;;;;55.00;40.23;;;;;;;;;;5112528;28;20444;-79
2022/10/15 04:28:37;;;;;;;52.87;41.87;;;;;;;;;;5113379;28;20443;-79
2022/10/15 04:31:04;;;;;;;55.17;41.17;;;;;;;;;;5112779;28;20956;-78
2022/10/15 04:33:31;;;;;;;56.13;41.57;;;;;;;;;;5113625;28;20440;-77
2022/10/15 04:36:01;;;;;;;55.17;42.40;;;;;;;;;;5113227;28;20448;-78
2022/10/15 04:38:29;;;;;;;47.00;38.80;;;;;;;;;;5113181;28;20967;-79
2022/10/15 04:41:00;;;;;;;49.37;39.40;;;;;;;;;;5113027;28;20879;-79
2022/10/15 04:43:28;;;;;;;54.10;39.67;;;;;;;;;;5113085;28;20486;-78
2022/10/15 04:45:56;;;;;;;50.63;39.47;;;;;;;;;;5113484;28;20422;-79
2022/10/15 04:48:24;;;;;;;55.47;39.00;;;;;;;;;;5113424;28;20471;-78
2022/10/15 04:50:52;;;;;;;48.37;38.40;;;;;;;;;;5113307;28;20468;-79
2022/10/15 04:53:20;;;;;;;55.13;39.03;;;;;;;;;;5112598;28;20955;-79
2022/10/15 04:55:48;;;;;;;51.37;37.80;;;;;;;;;;5113197;28;20445;-77
2022/10/15 04:58:15;;;;;;;52.10;38.30;;;;;;;;;;5113291;28;20782;-78
2022/10/15 05:00:42;;;;;;;50.97;38.50;;;;;;;;;;5113408;28;20451;-78
2022/10/15 05:03:10;;;;;;;48.57;39.10;;;;;;;;;;5112738;28;20475;-78
2022/10/15 05:05:37;;;;;;;46.00;38.27;;;;;;;;;;5113055;28;20450;-78
2022/10/15 05:08:05;;;;;;;42.60;34.40;;;;;;;;;;5113186;28;20432;-78
2022/10/15 05:10:34;;;;;;;39.50;34.60;;;;;;;;;;5113416;28;20813;-78
2022/10/15 05:13:02;;;;;;;40.60;34.53;;;;;;;;;;5112177;28;20481;-77
2022/10/15 05:15:29;;;;;;;42.37;35.23;;;;;;;;;;5113207;28;20441;-78
2022/10/15 05:17:57;;;;;;;46.80;35.83;;;;;;;;;;5112773;28;20471;-78
2022/10/15 05:20:24;;;;;;;47.90;36.73;;;;;;;;;;5112751;28;20443;-79
2022/10/15 05:22:51;;;;;;;61.30;35.40;;;;;;;;;;5112195;28;20528;-78
2022/10/15 05:25:19;;;;;;;43.80;34.67;;;;;;;;;;5112866;28;20453;-78
2022/10/15 05:27:48;;;;;;;49.93;38.43;;;;;;;;;;5113027;28;20445;-77
2022/10/15 05:30:15;;;;;;;44.63;36.77;;;;;;;;;;5112768;28;20945;-78
2022/10/15 05:32:42;;;;;;;41.33;36.80;;;;;;;;;;5112031;28;20490;-79
2022/10/15 05:35:10;;;;;;;42.17;34.93;;;;;;;;;;5112689;28;20955;-78
2022/10/15 05:37:37;;;;;;;42.07;35.40;;;;;;;;;;5115207;28;20452;-77
2022/10/15 05:40:05;;;;;;;43.27;36.30;;;;;;;;;;5116461;28;20451;-79
2022/10/15 05:42:32;;;;;;;45.97;37.67;;;;;;;;;;5116158;28;20464;-77
2022/10/15 05:45:01;;;;;;;44.13;35.97;;;;;;;;;;5116367;28;20448;-79
2022/10/15 05:47:28;;;;;;;42.97;35.73;;;;;;;;;;5116641;28;20448;-79
2022/10/15 05:49:56;;;;;;;46.60;37.90;;;;;;;;;;5116232;28;20444;-79
2022/10/15 05:52:23;;;;;;;48.07;36.50;;;;;;;;;;5116072;28;20764;-79
2022/10/15 05:54:50;;;;;;;45.93;35.20;;;;;;;;;;5116434;28;20444;-78
2022/10/15 05:57:18;;;;;;;45.33;35.70;;;;;;;;;;5116063;28;20455;-78
2022/10/15 05:59:45;;;;;;;42.80;36.57;;;;;;;;;;5116101;28;21006;-78
2022/10/15 06:02:15;;;;;;;54.20;35.37;;;;;;;;;;5115752;28;20461;-78
2022/10/15 06:04:42;;;;;;;61.40;35.37;;;;;;;;;;5116337;28;20456;-78
2022/10/15 06:07:10;;;;;;;106.20;38.13;;;;;;;;;;5116240;28;20453;-79
2022/10/15 06:09:37;;;;;;;62.10;36.63;;;;;;;;;;5115956;28;20479;-78
2022/10/15 06:12:04;;;;;;;85.03;39.60;;;;;;;;;;5115279;28;20448;-78
2022/10/15 06:14:32;;;;;;;77.93;40.30;;;;;;;;;;5116127;28;20448;-78
2022/10/15 06:16:59;;;;;;;108.83;39.17;;;;;;;;;;5116158;28;20459;-78
2022/10/15 06:19:28;;;;;;;140.10;41.97;;;;;;;;;;5115644;28;20490;-79
2022/10/15 06:21:55;;;;;;;83.63;41.33;;;;;;;;;;5115507;28;20449;-79
2022/10/15 06:24:22;;;;;;;83.00;39.20;;;;;;;;;;5115822;28;20476;-79
2022/10/15 06:26:50;;;;;;;109.17;41.87;;;;;;;;;;5115641;28;20433;-79
2022/10/15 06:29:17;;;;;;;92.20;44.53;;;;;;;;;;5115492;28;20451;-78
2022/10/15 06:31:44;;;;;;;78.93;38.53;;;;;;;;;;5115008;28;20450;-79
2022/10/15 06:34:12;;;;;;;116.53;43.07;;;;;;;;;;5115324;28;20492;-78
2022/10/15 06:36:40;;;;;;;122.87;44.53;;;;;;;;;;5115526;28;20842;-78
2022/10/15 06:39:08;;;;;;;69.00;40.60;;;;;;;;;;5115295;28;20572;-78
2022/10/15 06:41:35;;;;;;;78.50;40.10;;;;;;;;;;5114751;28;20779;-79
2022/10/15 06:44:02;;;;;;;71.40;41.50;;;;;;;;;;5115502;28;20563;-77
2022/10/15 06:46:30;;;;;;;67.50;42.00;;;;;;;;;;5115064;28;20441;-77
2022/10/15 06:48:57;;;;;;;77.10;46.50;;;;;;;;;;5114338;28;20456;-77
2022/10/15 06:51:24;;;;;;;79.10;46.57;;;;;;;;;;5114480;28;20452;-77
2022/10/15 06:53:53;;;;;;;70.93;46.30;;;;;;;;;;5114923;28;20566;-79
2022/10/15 06:56:20;;;;;;;71.60;47.10;;;;;;;;;;5115302;28;20457;-78
2022/10/15 06:58:48;;;;;;;68.03;44.73;;;;;;;;;;5115091;28;20495;-76
2022/10/15 07:01:16;;;;;;;69.57;46.50;;;;;;;;;;5114602;28;20446;-77
2022/10/15 07:03:43;;;;;;;68.77;45.20;;;;;;;;;;5114976;28;20512;-77
2022/10/15 07:06:10;;;;;;;61.23;44.07;;;;;;;;;;5114994;28;20461;-77
2022/10/15 07:08:38;;;;;;;63.53;42.70;;;;;;;;;;5114656;28;20943;-77
2022/10/15 07:11:07;;;;;;;67.83;44.93;;;;;;;;;;5114396;28;20771;-78
2022/10/15 07:13:35;;;;;;;72.97;47.80;;;;;;;;;;5114612;28;20502;-79
2022/10/15 07:16:04;;;;;;;81.57;48.17;;;;;;;;;;5114883;28;20458;-77
2022/10/15 07:18:32;;;;;;;65.80;43.10;;;;;;;;;;5114694;28;20484;-77
2022/10/15 07:20:59;;;;;;;70.77;47.10;;;;;;;;;;5114156;28;20445;-76
2022/10/15 07:23:27;;;;;;;69.10;48.47;;;;;;;;;;5114663;28;20514;-77
2022/10/15 07:25:54;;;;;;;72.10;49.60;;;;;;;;;;5114569;28;20551;-77
2022/10/15 07:28:23;;;;;;;70.10;46.47;;;;;;;;;;5114641;28;20790;-76
2022/10/15 07:30:51;;;;;;;66.70;47.00;;;;;;;;;;5114069;28;20929;-76
2022/10/15 07:33:18;;;;;;;68.63;45.70;;;;;;;;;;5113754;28;20829;-77
2022/10/15 07:35:45;;;;;;;62.10;46.47;;;;;;;;;;5113963;27;20488;-77
2022/10/15 07:38:13;;;;;;;61.90;44.57;;;;;;;;;;5114321;28;20451;-77
2022/10/15 07:40:40;;;;;;;63.10;44.37;;;;;;;;;;5114394;28;20447;-76
2022/10/15 07:43:07;;;;;;;61.27;44.07;;;;;;;;;;5113575;28;20449;-77
2022/10/15 07:45:36;;;;;;;54.90;44.63;;;;;;;;;;5113992;28;20445;-77
2022/10/15 07:48:04;;;;;;;58.90;44.10;;;;;;;;;;5113904;28;20431;-77
2022/10/15 07:50:32;;;;;;;60.40;45.93;;;;;;;;;;5113830;28;20453;-76
2022/10/15 07:52:59;;;;;;;53.80;43.47;;;;;;;;;;5113197;28;20825;-76
2022/10/15 07:55:26;;;;;;;52.77;43.20;;;;;;;;;;5113722;28;20449;-77
2022/10/15 07:57:57;;;;;;;57.13;43.53;;;;;;;;;;5114020;28;20449;-77
2022/10/15 08:00:24;;;;;;;51.43;40.60;;;;;;;;;;5113881;28;20855;-77
2022/10/15 08:02:53;;;;;;;54.33;43.57;;;;;;;;;;5113365;28;20466;-76
2022/10/15 08:05:20;;;;;;;59.87;42.23;;;;;;;;;;5113892;27;20436;-77
2022/10/15 08:07:47;;;;;;;52.30;43.87;;;;;;;;;;5113787;28;20450;-77
2022/10/15 08:10:14;;;;;;;58.77;45.70;;;;;;;;;;5113787;28;20452;-76
2022/10/15 08:12:42;;;;;;;55.63;45.83;;;;;;;;;;5112742;28;20483;-76
2022/10/15 08:15:09;;;;;;;49.83;42.03;;;;;;;;;;5113414;28;20447;-77
2022/10/15 08:17:37;;;;;;;50.33;42.30;;;;;;;;;;5113694;28;20864;-76
2022/10/15 08:20:07;;;;;;;57.67;44.10;;;;;;;;;;5113350;28;20487;-77
2022/10/15 08:22:34;;;;;;;54.80;41.57;;;;;;;;;;5112888;27;20475;-77
2022/10/15 08:25:02;;;;;;;47.10;42.03;;;;;;;;;;5113422;28;21002;-77
2022/10/15 08:27:29;;;;;;;46.47;41.27;;;;;;;;;;5113643;28;20430;-76
2022/10/15 08:29:56;;;;;;;47.17;40.47;;;;;;;;;;5113188;28;20423;-76
2022/10/15 08:32:23;;;;;;;44.10;39.50;;;;;;;;;;5112900;28;20461;-76
2022/10/15 08:34:51;;;;;;;47.43;42.60;;;;;;;;;;5113057;28;20456;-77
2022/10/15 08:37:19;;;;;;;45.40;40.40;;;;;;;;;;5113018;28;20449;-77
2022/10/15 08:39:47;;;;;;;47.40;42.07;;;;;;;;;;5113256;28;20472;-77
2022/10/15 08:42:17;;;;;;;45.73;41.00;;;;;;;;;;5112470;28;20800;-76
2022/10/15 08:44:46;;;;;;;44.90;40.10;;;;;;;;;;5112913;28;20796;-77
2022/10/15 08:47:20;;;;;;;43.87;39.27;;;;;;;;;;5113003;28;20444;-78
2022/10/15 08:49:50;;;;;;;44.20;39.63;;;;;;;;;;5113009;28;20889;-76
2022/10/15 08:52:21;;;;;;;46.03;40.40;;;;;;;;;;5112807;28;20887;-76
2022/10/15 08:54:49;;;;;;;47.63;40.67;;;;;;;;;;5113294;28;20479;-76
2022/10/15 08:57:20;;;;;;;48.23;43.07;;;;;;;;;;5112823;28;20447;-77
2022/10/15 08:59:51;;;;;;;42.63;37.80;;;;;;;;;;5113132;28;20833;-77
2022/10/15 09:02:21;;;;;;;48.07;40.80;;;;;;;;;;5112706;28;20423;-77
2022/10/15 09:04:51;;;;;;;45.27;40.50;;;;;;;;;;5112981;28;20813;-76
2022/10/15 09:07:22;;;;;;;47.50;39.83;;;;;;;;;;5112889;28;20937;-77
2022/10/15 09:09:52;;;;;;;42.37;37.90;;;;;;;;;;5113096;28;20444;-76
2022/10/15 09:12:29;;;;;;;41.50;37.27;;;;;;;;;;5114680;28;20452;-77
2022/10/15 09:14:58;;;;;;;42.30;38.00;;;;;;;;;;5116916;28;20431;-77
2022/10/15 09:17:26;;;;;;;43.17;38.57;;;;;;;;;;5117104;28;20498;-77
2022/10/15 09:19:55;;;;;;;42.23;38.10;;;;;;;;;;5116986;28;20481;-76
2022/10/15 09:22:24;;;;;;;42.00;37.77;;;;;;;;;;5116398;28;20476;-76
2022/10/15 09:24:54;;;;;;;40.27;36.00;;;;;;;;;;5116884;28;20518;-76
2022/10/15 09:27:26;;;;;;;40.03;36.03;;;;;;;;;;5116825;28;20449;-77
2022/10/15 09:29:57;;;;;;;40.23;36.17;;;;;;;;;;5116957;28;20421;-76
2022/10/15 09:32:30;;;;;;;40.17;36.17;;;;;;;;;;5116264;28;20459;-76
2022/10/15 09:35:00;;;;;;;37.50;33.90;;;;;;;;;;5116877;28;20434;-76
2022/10/15 09:37:30;;;;;;;37.10;33.40;;;;;;;;;;5116477;28;20949;-76
2022/10/15 09:40:12;;;;;;;34.17;30.97;;;;;;;;;;5116334;28;20964;-77
2022/10/15 09:42:42;;;;;;;34.33;31.00;;;;;;;;;;5116080;28;20472;-76
2022/10/15 09:45:11;;;;;;;35.07;31.73;;;;;;;;;;5116569;28;20442;-76
2022/10/15 09:47:41;;;;;;;35.60;32.10;;;;;;;;;;5116184;28;20461;-76
2022/10/15 09:50:10;;;;;;;33.43;30.17;;;;;;;;;;5116365;28;20815;-77
2022/10/15 09:52:46;;;;;;;33.10;30.00;;;;;;;;;;5115794;28;20805;-76
2022/10/15 09:55:20;;;;;;;33.93;30.73;;;;;;;;;;5116085;28;20976;-77
2022/10/15 09:57:52;;;;;;;33.97;30.67;;;;;;;;;;5116539;28;20429;-77
2022/10/15 10:00:19;;;;;;;33.83;30.33;;;;;;;;;;5116280;28;20471;-77
2022/10/15 10:03:05;;;;;;;33.23;30.20;;;;;;;;;;5115645;28;20534;-77
2022/10/15 10:05:33;;;;;;;35.23;31.77;;;;;;;;;;5116276;28;20836;-78
2022/10/15 10:08:11;;;;;;;34.87;31.83;;;;;;;;;;5115876;28;20954;-76
2022/10/15 10:10:38;;;;;;;33.40;30.30;;;;;;;;;;5116019;28;20450;-77
2022/10/15 10:13:10;;;;;;;32.50;29.50;;;;;;;;;;5115254;28;20832;-76
2022/10/15 10:15:40;;;;;;;31.67;28.80;;;;;;;;;;5115736;28;20432;-77
2022/10/15 10:18:18;;;;;;;32.87;29.53;;;;;;;;;;5115885;28;20490;-76
2022/10/15 10:20:53;;;;;;;30.97;28.00;;;;;;;;;;5115774;28;20474;-77
2022/10/15 10:23:22;;;;;;;29.97;27.37;;;;;;;;;;5114337;28;21045;-77
2022/10/15 10:25:50;;;;;;;31.70;28.70;;;;;;;;;;5115460;28;20902;-77
2022/10/15 10:28:23;;;;;;;32.00;29.03;;;;;;;;;;5115491;28;20496;-77
2022/10/15 10:30:54;;;;;;;27.03;24.77;;;;;;;;;;5115364;28;20477;-77
2022/10/15 10:33:25;;;;;;;29.60;27.10;;;;;;;;;;5115715;28;20493;-76
2022/10/15 10:35:52;;;;;;;25.70;23.73;;;;;;;;;;5115391;28;20490;-77
2022/10/15 10:38:20;;;;;;;30.50;27.90;;;;;;;;;;5115575;28;20454;-76
2022/10/15 10:40:51;;;;;;;28.40;26.10;;;;;;;;;;5114841;27;21108;-76
2022/10/15 10:43:23;;;;;;;28.97;26.70;;;;;;;;;;5115144;28;20524;-77
2022/10/15 10:45:54;;;;;;;27.60;25.33;;;;;;;;;;5115581;28;20428;-77
2022/10/15 10:48:22;;;;;;;25.97;24.03;;;;;;;;;;5115149;28;20440;-77
2022/10/15 10:50:50;;;;;;;26.97;24.77;;;;;;;;;;5115272;28;20443;-77
2022/10/15 10:53:22;;;;;;;27.53;25.27;;;;;;;;;;5114749;28;20495;-76
2022/10/15 10:55:50;;;;;;;26.87;24.57;;;;;;;;;;5114547;27;20959;-76
2022/10/15 10:58:19;;;;;;;28.23;25.87;;;;;;;;;;5115261;28;20433;-77
2022/10/15 11:00:49;;;;;;;25.93;24.03;;;;;;;;;;5114823;28;20514;-76
2022/10/15 11:03:22;;;;;;;24.80;22.90;;;;;;;;;;5114411;28;20968;-76
2022/10/15 11:05:52;;;;;;;25.27;23.30;;;;;;;;;;5114677;28;20462;-76
2022/10/15 11:08:23;;;;;;;25.67;23.57;;;;;;;;;;5114683;28;20443;-76
2022/10/15 11:10:53;;;;;;;25.23;23.40;;;;;;;;;;5114872;28;20447;-76
2022/10/15 11:13:27;;;;;;;24.37;22.77;;;;;;;;;;5114509;28;20476;-76
2022/10/15 11:15:57;;;;;;;24.80;23.10;;;;;;;;;;5114099;27;20996;-77
2022/10/15 11:18:34;;;;;;;24.73;22.87;;;;;;;;;;5114773;28;20451;-77
2022/10/15 11:21:07;;;;;;;20.63;19.37;;;;;;;;;;5113981;28;20462;-77
2022/10/15 11:23:41;;;;;;;21.40;20.10;;;;;;;;;;5114399;28;20474;-77
2022/10/15 11:26:14;;;;;;;23.63;22.07;;;;;;;;;;5114690;28;20795;-77
2022/10/15 11:28:49;;;;;;;23.00;21.50;;;;;;;;;;5114326;28;20510;-77
2022/10/15 11:31:21;;;;;;;21.67;20.20;;;;;;;;;;5113750;28;20434;-76
2022/10/15 11:33:55;;;;;;;22.37;20.87;;;;;;;;;;5114343;28;20469;-78
2022/10/15 11:36:30;;;;;;;22.80;21.40;;;;;;;;;;5114498;28;20411;-77
2022/10/15 11:39:11;;;;;;;22.67;21.37;;;;;;;;;;5114235;28;20433;-77
2022/10/15 11:41:41;;;;;;;22.10;20.70;;;;;;;;;;5113591;28;20459;-78
2022/10/15 11:44:24;;;;;;;21.73;20.43;;;;;;;;;;5114255;28;20494;-77
2022/10/15 11:46:58;;;;;;;22.50;21.00;;;;;;;;;;5113976;28;20946;-77
2022/10/15 11:49:30;;;;;;;22.20;20.90;;;;;;;;;;5113526;27;20497;-76
2022/10/15 11:52:08;;;;;;;21.93;20.60;;;;;;;;;;5113387;28;21019;-77
2022/10/15 11:54:38;;;;;;;20.90;19.70;;;;;;;;;;5114148;28;20434;-77
2022/10/15 11:57:05;;;;;;;19.63;18.63;;;;;;;;;;5113732;28;20457;-77
2022/10/15 11:59:36;;;;;;;20.43;19.23;;;;;;;;;;5113988;28;20458;-76
2022/10/15 12:02:07;;;;;;;19.83;18.77;;;;;;;;;;5113335;28;20454;-76
2022/10/15 12:04:39;;;;;;;20.20;19.00;;;;;;;;;;5113624;28;20836;-77
2022/10/15 12:07:08;;;;;;;19.67;18.57;;;;;;;;;;5113657;28;20463;-76
2022/10/15 12:09:36;;;;;;;19.67;18.60;;;;;;;;;;5113503;28;20465;-77
2022/10/15 12:12:09;;;;;;;19.57;18.47;;;;;;;;;;5113006;28;20934;-77
2022/10/15 12:14:39;;;;;;;20.00;18.70;;;;;;;;;;5113667;28;20447;-77
2022/10/15 12:17:11;;;;;;;19.53;18.43;;;;;;;;;;5113458;28;20414;-76
2022/10/15 12:19:41;;;;;;;19.17;18.17;;;;;;;;;;5113700;28;20440;-76
2022/10/15 12:22:10;;;;;;;18.57;17.67;;;;;;;;;;5112975;28;20944;-77
2022/10/15 12:24:52;;;;;;;18.60;17.60;;;;;;;;;;5113597;28;20481;-78
2022/10/15 12:27:22;;;;;;;18.27;17.37;;;;;;;;;;5113565;28;20529;-77
2022/10/15 12:29:51;;;;;;;18.43;17.53;;;;;;;;;;5113481;28;20439;-77
2022/10/15 12:32:25;;;;;;;18.53;17.63;;;;;;;;;;5112653;28;20780;-76
2022/10/15 12:34:56;;;;;;;18.33;17.43;;;;;;;;;;5113595;28;20437;-77
2022/10/15 12:37:25;;;;;;;19.20;18.20;;;;;;;;;;5113441;28;20454;-77
2022/10/15 12:39:56;;;;;;;18.20;17.30;;;;;;;;;;5113053;28;20457;-77
2022/10/15 12:42:25;;;;;;;18.17;17.27;;;;;;;;;;5112831;28;20798;-76
2022/10/15 12:44:53;;;;;;;17.77;16.90;;;;;;;;;;5113292;28;20451;-77
2022/10/15 12:47:35;;;;;;;18.83;17.80;;;;;;;;;;5112687;28;20479;-76
2022/10/15 12:50:06;;;;;;;18.70;17.70;;;;;;;;;;5112767;28;20443;-76
2022/10/15 12:52:53;;;;;;;18.40;17.47;;;;;;;;;;5112437;28;20473;-77
2022/10/15 12:55:22;;;;;;;19.03;17.80;;;;;;;;;;5113294;28;20427;-76
2022/10/15 12:57:53;;;;;;;18.87;17.77;;;;;;;;;;5113126;28;20448;-77
2022/10/15 13:00:40;;;;;;;18.10;17.23;;;;;;;;;;5113178;28;20539;-77
2022/10/15 13:03:14;;;;;;;18.10;17.23;;;;;;;;;;5112637;28;20477;-76
2022/10/15 13:05:44;;;;;;;18.00;17.10;;;;;;;;;;5112914;28;20877;-76
2022/10/15 13:08:14;;;;;;;17.87;16.93;;;;;;;;;;5113214;28;20538;-77
2022/10/15 13:10:46;;;;;;;18.53;17.63;;;;;;;;;;5113405;28;20798;-77
2022/10/15 13:13:16;;;;;;;16.83;16.13;;;;;;;;;;5112326;28;20483;-78
2022/10/15 13:15:43;;;;;;;17.83;17.03;;;;;;;;;;5113029;28;20827;-76
2022/10/15 13:18:13;;;;;;;17.30;16.60;;;;;;;;;;5113236;28;20868;-77
2022/10/15 13:20:42;;;;;;;17.20;16.50;;;;;;;;;;5113209;28;20994;-76
2022/10/15 13:23:18;;;;;;;16.23;15.53;;;;;;;;;;5112016;27;20478;-77
2022/10/15 13:25:45;;;;;;;17.13;16.43;;;;;;;;;;5113148;28;20428;-76
2022/10/15 13:28:29;;;;;;;16.67;15.97;;;;;;;;;;5112957;28;20460;-77
2022/10/15 13:30:57;;;;;;;17.63;16.93;;;;;;;;;;5112221;28;20418;-77
2022/10/15 13:33:25;;;;;;;16.27;15.57;;;;;;;;;;5112732;28;20499;-77
2022/10/15 13:35:52;;;;;;;17.53;16.67;;;;;;;;;;5112672;28;20446;-77
2022/10/15 13:38:23;;;;;;;16.40;15.70;;;;;;;;;;5112779;28;20469;-77
2022/10/15 13:40:51;;;;;;;17.83;17.13;;;;;;;;;;5112884;28;20474;-77
2022/10/15 13:43:20;;;;;;;16.47;15.87;;;;;;;;;;5112185;28;20469;-77
2022/10/15 13:45:48;;;;;;;17.20;16.37;;;;;;;;;;5112510;28;20486;-76
2022/10/15 13:48:20;;;;;;;16.77;16.07;;;;;;;;;;5112546;28;20525;-77
2022/10/15 13:50:49;;;;;;;15.80;15.20;;;;;;;;;;5112604;28;20449;-77
2022/10/15 13:53:20;;;;;;;16.13;15.43;;;;;;;;;;5112361;28;20832;-77
2022/10/15 13:55:49;;;;;;;15.90;15.30;;;;;;;;;;5112755;28;20430;-76
2022/10/15 13:58:18;;;;;;;16.00;15.30;;;;;;;;;;5114414;28;20427;-77
2022/10/15 14:00:51;;;;;;;16.37;15.57;;;;;;;;;;5116324;28;20974;-77
2022/10/15 14:03:21;;;;;;;15.67;15.07;;;;;;;;;;5115757;28;20452;-78
2022/10/15 14:05:49;;;;;;;15.77;14.87;;;;;;;;;;5116181;28;20447;-77
2022/10/15 14:08:21;;;;;;;15.83;15.20;;;;;;;;;;5116329;27;20820;-77
2022/10/15 14:10:51;;;;;;;16.23;15.53;;;;;;;;;;5115766;28;20454;-77
2022/10/15 14:13:18;;;;;;;15.70;15.00;;;;;;;;;;5115259;28;20862;-77
2022/10/15 14:15:54;;;;;;;16.07;15.37;;;;;;;;;;5116055;28;20810;-77
2022/10/15 14:18:29;;;;;;;15.50;14.90;;;;;;;;;;5116050;28;20411;-77
2022/10/15 14:20:56;;;;;;;15.80;15.10;;;;;;;;;;5115400;28;20471;-77
2022/10/15 14:23:25;;;;;;;16.20;15.53;;;;;;;;;;5115859;28;20502;-76
2022/10/15 14:25:55;;;;;;;16.47;15.67;;;;;;;;;;5115866;28;20489;-77
2022/10/15 14:28:23;;;;;;;16.87;16.17;;;;;;;;;;5115537;28;20489;-76